Time;durP1;ratioP1;P1;durP2;ratioP2;P2;SDS_P1;SDS_P2;PMS_P1;PMS_P2;Temp;Humidity;BMP_temperature;BMP_pressure;BME280_temperature;BME280_humidity;BME280_pressure;Samples;Min_cycle;Max_cycle;Signal;HPM_P1;HPM_P2
2021/10/25 00:02:23;;;;;;;9.88;6.75;;;4.80;99.90;;;;;;5022180;28;20269;-60
2021/10/25 00:04:50;;;;;;;9.60;6.38;;;4.80;99.90;;;;;;5005641;28;20310;-60
2021/10/25 00:07:19;;;;;;;8.05;7.30;;;4.80;99.90;;;;;;4994827;28;20198;-61
2021/10/25 00:09:46;;;;;;;11.43;5.75;;;5.00;99.90;;;;;;4994364;28;20223;-60
2021/10/25 00:12:13;;;;;;;7.43;6.20;;;5.00;99.90;;;;;;4993897;28;20190;-60
2021/10/25 00:14:40;;;;;;;9.60;6.72;;;5.10;99.90;;;;;;4991346;28;20229;-60
2021/10/25 00:17:07;;;;;;;8.73;6.22;;;5.10;99.90;;;;;;4994650;28;20187;-60
2021/10/25 00:19:34;;;;;;;9.63;6.25;;;5.20;99.90;;;;;;4994368;28;20214;-60
2021/10/25 00:22:01;;;;;;;8.32;6.18;;;5.20;99.90;;;;;;4994620;28;20727;-60
2021/10/25 00:24:28;;;;;;;6.53;5.68;;;5.20;99.90;;;;;;4994206;28;20236;-60
2021/10/25 00:26:55;;;;;;;7.50;6.18;;;5.10;99.90;;;;;;4994319;28;20277;-60
2021/10/25 00:29:22;;;;;;;6.85;5.68;;;5.10;99.90;;;;;;4993823;28;20214;-60
2021/10/25 00:31:49;;;;;;;7.15;6.45;;;5.10;99.90;;;;;;4977326;28;20653;-60
2021/10/25 00:34:17;;;;;;;7.65;5.80;;;5.10;99.90;;;;;;4994241;28;20217;-60
2021/10/25 00:36:44;;;;;;;10.02;4.85;;;5.10;99.90;;;;;;5021538;28;20197;-60
2021/10/25 00:39:11;;;;;;;8.25;5.90;;;5.00;99.90;;;;;;5015667;28;20238;-60
2021/10/25 00:41:38;;;;;;;6.78;6.07;;;5.10;99.90;;;;;;5033781;28;20416;-60
2021/10/25 00:44:05;;;;;;;6.18;5.07;;;5.10;99.90;;;;;;4998570;28;20229;-60
2021/10/25 00:46:32;;;;;;;6.07;5.32;;;5.20;99.90;;;;;;4977329;28;20265;-59
2021/10/25 00:49:00;;;;;;;8.02;5.25;;;5.10;99.90;;;;;;4994124;28;20273;-60
2021/10/25 00:51:28;;;;;;;6.97;4.95;;;5.10;99.90;;;;;;4976848;28;20195;-59
2021/10/25 00:53:55;;;;;;;9.25;4.97;;;5.10;99.90;;;;;;4993948;28;20232;-60
2021/10/25 00:56:24;;;;;;;6.15;5.53;;;5.10;99.90;;;;;;4994190;28;20237;-59
2021/10/25 00:58:51;;;;;;;5.75;4.95;;;5.10;99.90;;;;;;4976408;28;20312;-60
2021/10/25 01:01:18;;;;;;;6.68;5.43;;;5.10;99.90;;;;;;4994165;28;20265;-60
2021/10/25 01:03:45;;;;;;;8.85;5.05;;;5.10;99.90;;;;;;4993115;28;20637;-60
2021/10/25 01:06:15;;;;;;;7.38;5.63;;;5.00;99.90;;;;;;4976843;28;20210;-60
2021/10/25 01:08:44;;;;;;;6.25;4.93;;;5.00;99.90;;;;;;4993640;28;20293;-60
2021/10/25 01:11:11;;;;;;;6.07;5.13;;;5.00;99.90;;;;;;4993962;28;20183;-60
2021/10/25 01:13:40;;;;;;;5.88;4.22;;;5.00;99.90;;;;;;4992004;28;20222;-60
2021/10/25 01:16:07;;;;;;;5.93;4.95;;;5.00;99.90;;;;;;4993664;28;20197;-60
2021/10/25 01:18:34;;;;;;;6.38;4.95;;;5.10;99.90;;;;;;4993364;28;20640;-60
2021/10/25 01:21:01;;;;;;;7.50;4.47;;;5.10;99.90;;;;;;4976089;28;20285;-60
2021/10/25 01:23:29;;;;;;;5.75;5.10;;;5.10;99.90;;;;;;4975695;28;20506;-60
2021/10/25 01:25:56;;;;;;;5.47;4.97;;;5.10;99.90;;;;;;4975241;28;20289;-60
2021/10/25 01:28:23;;;;;;;6.80;5.10;;;5.10;99.90;;;;;;4992999;28;20214;-60
2021/10/25 01:30:51;;;;;;;5.50;4.78;;;5.00;99.90;;;;;;4993234;28;20186;-60
2021/10/25 01:33:18;;;;;;;5.10;4.60;;;5.00;99.90;;;;;;4975549;28;20675;-60
2021/10/25 01:35:45;;;;;;;5.55;4.57;;;5.00;99.90;;;;;;4987436;28;20606;-60
2021/10/25 01:38:15;;;;;;;6.18;4.85;;;5.00;99.90;;;;;;5014296;28;20323;-60
2021/10/25 01:40:45;;;;;;;4.45;4.07;;;4.90;99.90;;;;;;5014856;28;20189;-60
2021/10/25 01:43:12;;;;;;;6.75;5.43;;;5.00;99.90;;;;;;5014237;28;20614;-60
2021/10/25 01:45:39;;;;;;;5.05;4.30;;;5.00;99.90;;;;;;4999926;28;20242;-60
2021/10/25 01:48:08;;;;;;;6.53;5.47;;;5.00;99.90;;;;;;4992530;28;20583;-60
2021/10/25 01:50:35;;;;;;;4.57;4.18;;;5.10;99.90;;;;;;4975771;28;20191;-60
2021/10/25 01:53:04;;;;;;;5.10;4.22;;;5.00;99.90;;;;;;4992582;28;20182;-59
2021/10/25 01:55:34;;;;;;;5.05;4.45;;;4.90;99.90;;;;;;4987332;28;20190;-60
2021/10/25 01:58:03;;;;;;;6.95;4.80;;;4.90;99.90;;;;;;4990300;28;20202;-60
2021/10/25 02:00:29;;;;;;;4.88;4.30;;;4.80;99.90;;;;;;4991618;28;20194;-60
2021/10/25 02:02:57;;;;;;;5.40;4.00;;;4.90;99.90;;;;;;4975017;28;20245;-60
2021/10/25 02:05:44;;;;;;;4.72;4.30;;;4.90;99.90;;;;;;4992216;28;20278;-60
2021/10/25 02:08:12;;;;;;;6.78;3.50;;;5.00;99.90;;;;;;4974612;28;20210;-60
2021/10/25 02:11:05;;;;;;;4.30;3.90;;;4.90;99.90;;;;;;4988767;28;20277;-60
2021/10/25 02:13:35;;;;;;;5.70;3.65;;;4.90;99.90;;;;;;4991928;28;20226;-60
2021/10/25 02:16:05;;;;;;;5.68;3.88;;;4.80;99.90;;;;;;4975309;28;20218;-60
2021/10/25 02:18:32;;;;;;;4.53;3.92;;;4.70;99.90;;;;;;4975027;28;20604;-59
2021/10/25 02:21:04;;;;;;;5.95;4.60;;;4.60;99.90;;;;;;4989454;28;20680;-60
2021/10/25 02:23:31;;;;;;;4.80;4.25;;;4.60;99.90;;;;;;4990868;28;20218;-60
2021/10/25 02:25:59;;;;;;;5.18;4.78;;;4.60;99.90;;;;;;4974973;28;20284;-60
2021/10/25 02:28:26;;;;;;;6.18;5.40;;;4.60;99.90;;;;;;4991705;28;20218;-60
2021/10/25 02:30:56;;;;;;;6.05;5.07;;;4.60;99.90;;;;;;4975196;28;20197;-60
2021/10/25 02:33:27;;;;;;;6.85;6.25;;;4.60;99.90;;;;;;4990857;28;20245;-60
2021/10/25 02:35:54;;;;;;;6.93;6.30;;;4.70;99.90;;;;;;4975801;28;20197;-60
2021/10/25 02:38:23;;;;;;;7.22;5.68;;;4.70;99.90;;;;;;5013226;28;20693;-60
2021/10/25 02:40:56;;;;;;;5.85;4.93;;;4.80;99.90;;;;;;5014092;28;20558;-60
2021/10/25 02:43:23;;;;;;;5.40;4.85;;;4.80;99.90;;;;;;5006449;28;20218;-60
2021/10/25 02:45:53;;;;;;;5.78;5.28;;;4.80;99.90;;;;;;4974813;28;20238;-60
2021/10/25 02:48:20;;;;;;;5.55;5.03;;;4.80;99.90;;;;;;4991560;28;20244;-60
2021/10/25 02:50:47;;;;;;;6.25;5.00;;;4.80;99.90;;;;;;4992606;28;20193;-60
2021/10/25 02:53:14;;;;;;;4.85;4.38;;;4.90;99.90;;;;;;4990526;28;20198;-60
2021/10/25 02:55:42;;;;;;;4.38;3.97;;;4.90;99.90;;;;;;4974830;28;20190;-60
2021/10/25 02:58:08;;;;;;;5.05;4.00;;;5.00;99.90;;;;;;4991823;28;20301;-59
2021/10/25 03:00:35;;;;;;;4.40;4.00;;;5.10;99.90;;;;;;4990997;28;20194;-60
2021/10/25 03:03:08;;;;;;;5.15;3.45;;;5.20;99.90;;;;;;4997269;28;20197;-60
2021/10/25 03:05:35;;;;;;;3.85;3.25;;;5.30;99.90;;;;;;4993325;28;20615;-60
2021/10/25 03:08:02;;;;;;;5.07;3.97;;;5.40;99.90;;;;;;4993660;28;20214;-59
2021/10/25 03:10:29;;;;;;;4.55;3.53;;;5.40;99.90;;;;;;4994006;28;20651;-60
2021/10/25 03:12:56;;;;;;;6.20;4.45;;;5.40;99.90;;;;;;4993513;28;20201;-60
2021/10/25 03:15:23;;;;;;;7.32;4.47;;;5.50;99.90;;;;;;4990173;28;20554;-60
2021/10/25 03:17:51;;;;;;;6.72;3.70;;;5.50;99.90;;;;;;4974517;28;20214;-60
2021/10/25 03:20:38;;;;;;;4.63;3.30;;;5.60;99.90;;;;;;4985138;28;20308;-60
2021/10/25 03:23:05;;;;;;;4.43;3.40;;;5.60;99.90;;;;;;4974027;28;20203;-60
2021/10/25 03:25:33;;;;;;;6.20;3.55;;;5.70;99.90;;;;;;4992000;28;20241;-60
2021/10/25 03:28:01;;;;;;;4.22;3.80;;;5.70;99.90;;;;;;4974976;28;20202;-60
2021/10/25 03:30:30;;;;;;;5.20;3.22;;;5.70;99.90;;;;;;4990810;28;20193;-60
2021/10/25 03:33:01;;;;;;;4.53;3.75;;;5.80;99.90;;;;;;4990180;28;20192;-60
2021/10/25 03:35:42;;;;;;;5.85;3.10;;;5.80;99.90;;;;;;4985238;28;20221;-60
2021/10/25 03:38:13;;;;;;;5.10;3.40;;;5.80;99.90;;;;;;5012745;28;20194;-60
2021/10/25 03:40:43;;;;;;;3.90;3.50;;;5.80;99.90;;;;;;5013532;28;20555;-60
2021/10/25 03:43:10;;;;;;;3.65;3.35;;;5.80;99.90;;;;;;5002437;28;20760;-60
2021/10/25 03:45:49;;;;;;;7.13;3.72;;;5.80;99.90;;;;;;4998676;28;20232;-60
2021/10/25 03:48:28;;;;;;;3.42;3.10;;;5.80;99.90;;;;;;5010541;28;20221;-60
2021/10/25 03:50:55;;;;;;;6.40;3.38;;;5.90;99.90;;;;;;4993735;28;20205;-60
2021/10/25 03:53:36;;;;;;;4.00;3.58;;;5.90;99.90;;;;;;4994758;28;20640;-60
2021/10/25 04:25:26;;;;;;;3.92;3.55;;;5.80;99.90;;;;;;4971411;28;20577;-61
2021/10/25 04:27:45;;;;;;;6.45;3.67;;;5.80;99.90;;;;;;4976999;28;20198;-60
2021/10/25 04:30:12;;;;;;;5.45;3.50;;;6.00;99.90;;;;;;4976870;28;20318;-60
2021/10/25 04:32:39;;;;;;;6.07;3.60;;;5.90;99.90;;;;;;4977246;28;20293;-60
2021/10/25 04:35:19;;;;;;;3.90;3.50;;;5.90;99.90;;;;;;4988719;28;20244;-61
2021/10/25 04:38:05;;;;;;;7.82;3.47;;;6.00;99.90;;;;;;5033121;28;20193;-61
2021/10/25 04:40:32;;;;;;;3.58;3.28;;;6.00;99.90;;;;;;5015876;28;20713;-60
2021/10/25 04:42:59;;;;;;;6.00;4.30;;;6.00;99.90;;;;;;5015622;28;20189;-61
2021/10/25 04:45:26;;;;;;;4.30;2.85;;;6.10;99.90;;;;;;4996212;28;20307;-60
2021/10/25 04:47:59;;;;;;;5.32;3.67;;;6.20;99.90;;;;;;4961220;28;20660;-60
2021/10/25 04:50:46;;;;;;;4.90;3.55;;;6.30;99.90;;;;;;5004938;28;20200;-60
2021/10/25 04:53:32;;;;;;;4.93;4.07;;;6.40;99.90;;;;;;5013502;28;20226;-60
2021/10/25 04:55:59;;;;;;;7.50;4.57;;;6.40;99.90;;;;;;5012415;28;20192;-60
2021/10/25 04:58:27;;;;;;;5.20;4.30;;;6.40;99.90;;;;;;5008541;28;20230;-60
2021/10/25 05:00:54;;;;;;;5.10;4.10;;;6.50;99.90;;;;;;4993992;28;20670;-61
2021/10/25 05:03:21;;;;;;;5.80;4.18;;;6.60;99.90;;;;;;4993343;28;20246;-60
2021/10/25 05:05:49;;;;;;;5.60;4.15;;;6.70;99.90;;;;;;4975830;28;20285;-60
2021/10/25 05:08:16;;;;;;;7.65;4.03;;;6.70;99.90;;;;;;4992038;28;20226;-61
2021/10/25 05:10:43;;;;;;;6.15;4.85;;;6.70;99.90;;;;;;4992773;28;20188;-60
2021/10/25 05:13:10;;;;;;;4.88;4.47;;;6.70;99.90;;;;;;5004101;28;20610;-60
2021/10/25 05:15:37;;;;;;;5.82;4.10;;;6.70;99.90;;;;;;4985871;28;20649;-60
2021/10/25 05:18:04;;;;;;;5.70;4.70;;;6.70;99.90;;;;;;4982870;28;20193;-61
2021/10/25 05:20:31;;;;;;;8.98;4.40;;;6.70;99.90;;;;;;5012578;28;20294;-61
2021/10/25 05:23:00;;;;;;;7.35;4.35;;;6.80;99.90;;;;;;5014577;28;20201;-61
2021/10/25 05:25:29;;;;;;;7.82;4.50;;;6.90;99.90;;;;;;5015183;28;20221;-61
2021/10/25 05:27:56;;;;;;;8.77;3.92;;;6.90;99.90;;;;;;5001740;28;20186;-60
2021/10/25 05:30:23;;;;;;;6.05;3.85;;;6.90;99.90;;;;;;4993523;28;20659;-60
2021/10/25 05:32:50;;;;;;;4.40;3.75;;;7.00;99.90;;;;;;4976158;28;20238;-61
2021/10/25 05:35:18;;;;;;;3.95;3.55;;;7.00;99.90;;;;;;4983384;28;20709;-61
2021/10/25 05:37:45;;;;;;;5.03;4.20;;;7.00;99.90;;;;;;4993186;28;20248;-60
2021/10/25 05:40:12;;;;;;;4.75;3.70;;;7.10;99.90;;;;;;5027014;28;20312;-60
2021/10/25 05:42:47;;;;;;;4.13;3.72;;;7.10;99.90;;;;;;4995468;28;20230;-61
2021/10/25 05:45:14;;;;;;;4.75;3.20;;;7.10;99.90;;;;;;4992370;28;20307;-60
2021/10/25 05:47:41;;;;;;;6.82;3.92;;;7.20;99.90;;;;;;4975690;28;20575;-60
2021/10/25 05:50:10;;;;;;;4.30;3.88;;;7.30;99.90;;;;;;4975719;28;20726;-60
2021/10/25 05:52:37;;;;;;;8.65;4.35;;;7.30;99.90;;;;;;4993240;28;20191;-60
2021/10/25 05:55:05;;;;;;;5.05;4.13;;;7.30;99.90;;;;;;4975074;28;20247;-60
2021/10/25 05:57:33;;;;;;;10.90;4.30;;;7.40;99.90;;;;;;4959418;28;20193;-60
2021/10/25 06:00:01;;;;;;;7.18;4.85;;;7.30;99.90;;;;;;4974945;28;20311;-60
2021/10/25 06:02:37;;;;;;;6.18;4.22;;;7.30;99.90;;;;;;4993068;28;20193;-60
2021/10/25 06:05:09;;;;;;;4.88;4.03;;;7.20;99.90;;;;;;4975194;28;20749;-61
2021/10/25 06:07:44;;;;;;;6.43;3.83;;;7.20;99.90;;;;;;4975144;28;20280;-61
2021/10/25 06:10:13;;;;;;;6.80;4.60;;;7.20;99.90;;;;;;4974616;28;20311;-60
2021/10/25 06:12:49;;;;;;;4.13;3.67;;;7.20;99.90;;;;;;4992523;28;20191;-61
2021/10/25 06:15:41;;;;;;;4.47;4.03;;;7.30;99.90;;;;;;5009694;28;20215;-61
2021/10/25 06:18:10;;;;;;;6.13;4.50;;;7.30;99.90;;;;;;5013551;28;20200;-60
2021/10/25 06:20:39;;;;;;;5.30;4.55;;;7.30;99.90;;;;;;4999246;28;20558;-60
2021/10/25 06:23:15;;;;;;;6.47;4.67;;;7.40;99.90;;;;;;4993903;28;20285;-60
2021/10/25 06:25:46;;;;;;;6.57;4.80;;;7.40;99.90;;;;;;4994497;28;20496;-60
2021/10/25 06:28:15;;;;;;;9.30;6.57;;;7.40;99.90;;;;;;4990368;28;20186;-60
2021/10/25 06:31:02;;;;;;;6.47;3.92;;;7.30;99.90;;;;;;4975032;28;20227;-60
2021/10/25 06:34:03;;;;;;;4.22;3.85;;;7.30;99.90;;;;;;4966614;28;20248;-61
2021/10/25 06:36:33;;;;;;;7.45;4.03;;;7.40;99.90;;;;;;4992189;28;20555;-61
2021/10/25 06:39:21;;;;;;;3.88;3.45;;;7.30;99.90;;;;;;4974415;28;20228;-60
2021/10/25 06:41:56;;;;;;;5.45;3.88;;;7.40;99.90;;;;;;4975957;28;20216;-60
2021/10/25 06:44:56;;;;;;;4.18;3.08;;;7.40;99.90;;;;;;4976820;28;20257;-60
2021/10/25 06:47:28;;;;;;;6.50;3.88;;;7.50;99.90;;;;;;4974549;28;20202;-60
2021/10/25 06:50:03;;;;;;;10.40;4.50;;;7.50;99.90;;;;;;4990670;28;20307;-61
2021/10/25 06:52:33;;;;;;;4.10;3.40;;;7.50;99.90;;;;;;5009913;28;20443;-61
2021/10/25 06:55:03;;;;;;;5.38;4.30;;;7.50;99.90;;;;;;5031270;28;20235;-61
2021/10/25 06:57:30;;;;;;;7.95;4.10;;;7.50;99.90;;;;;;5013805;28;20218;-61
2021/10/25 06:59:57;;;;;;;5.70;4.10;;;7.50;99.90;;;;;;4999107;28;20300;-61
2021/10/25 07:02:25;;;;;;;5.10;3.47;;;7.60;99.90;;;;;;4975210;28;20430;-60
2021/10/25 07:05:04;;;;;;;4.57;3.60;;;7.60;99.90;;;;;;4979380;28;20477;-60
2021/10/25 07:07:31;;;;;;;9.47;4.60;;;7.60;99.90;;;;;;4974724;28;20433;-61
2021/10/25 07:09:58;;;;;;;9.27;4.83;;;7.60;99.90;;;;;;4974020;28;20544;-61
2021/10/25 07:12:26;;;;;;;6.47;4.80;;;7.60;99.90;;;;;;4979279;28;20888;-61
2021/10/25 07:14:56;;;;;;;6.00;3.90;;;7.60;99.90;;;;;;4978580;28;20491;-60
2021/10/25 08:10:40;;;;;;;4.07;3.40;;;8.80;99.90;;;;;;5012072;28;20526;-57
2021/10/25 08:13:13;;;;;;;7.37;4.97;;;8.90;99.90;;;;;;5007086;28;20453;-57
2021/10/25 08:15:43;;;;;;;4.17;3.37;;;9.00;99.90;;;;;;4995014;28;20420;-57
2021/10/25 08:20:58;;;;;;;7.60;5.10;;;9.20;99.90;;;;;;4982682;28;20454;-57
2021/10/25 08:23:25;;;;;;;4.67;4.23;;;9.40;99.90;;;;;;4976611;28;20847;-57
2021/10/25 08:25:55;;;;;;;5.17;4.37;;;9.50;99.90;;;;;;4977187;28;20528;-57
2021/10/25 08:28:23;;;;;;;8.67;5.20;;;9.60;99.90;;;;;;4992968;28;20987;-58
2021/10/25 08:30:51;;;;;;;5.67;3.90;;;9.60;99.90;;;;;;4978780;28;20811;-57
2021/10/25 08:34:25;;;;;;;5.87;5.03;;;9.80;99.90;;;;;;4982829;28;20481;-57
2021/10/25 08:36:23;;;;;;;4.70;3.87;;;9.90;99.90;;;;;;4968583;28;20453;-57
2021/10/25 08:42:04;;;;;;;6.27;3.67;;;10.20;99.90;;;;;;4977074;28;20449;-57
2021/10/25 08:44:31;;;;;;;7.40;4.70;;;10.40;99.90;;;;;;4992714;28;21017;-57
2021/10/25 08:46:59;;;;;;;8.17;2.83;;;10.50;99.90;;;;;;4993165;28;20517;-57
2021/10/25 08:49:27;;;;;;;5.40;3.40;;;10.50;99.90;;;;;;5016630;28;20478;-57
2021/10/25 08:51:54;;;;;;;6.00;2.80;;;10.50;99.90;;;;;;4976908;28;20489;-57
2021/10/25 08:54:29;;;;;;;4.80;3.03;;;10.40;99.90;;;;;;4976260;28;20479;-57
2021/10/25 08:57:01;;;;;;;2.90;2.60;;;10.40;99.90;;;;;;4976798;28;20422;-57
2021/10/25 08:59:32;;;;;;;4.17;3.30;;;10.50;99.90;;;;;;4976959;28;20453;-57
2021/10/25 09:02:05;;;;;;;3.37;3.07;;;10.50;99.90;;;;;;4976703;28;20808;-57
2021/10/25 09:05:04;;;;;;;5.37;3.10;;;10.60;99.90;;;;;;4979940;28;20464;-57
2021/10/25 09:07:52;;;;;;;6.37;3.20;;;10.60;99.90;;;;;;4992510;28;20511;-57
2021/10/25 09:10:24;;;;;;;5.23;2.80;;;10.70;99.90;;;;;;4976040;28;20451;-57
2021/10/25 09:12:58;;;;;;;6.10;3.10;;;10.90;99.90;;;;;;4994270;28;20448;-60
2021/10/25 09:15:28;;;;;;;4.03;3.70;;;11.00;99.90;;;;;;4976947;28;20473;-61
2021/10/25 09:18:13;;;;;;;3.87;2.80;;;11.10;99.90;;;;;;4993229;28;20457;-61
2021/10/25 09:20:58;;;;;;;6.10;3.30;;;11.30;99.90;;;;;;4987188;28;20441;-61
2021/10/25 09:23:35;;;;;;;3.60;2.97;;;11.40;99.90;;;;;;4975722;28;20465;-61
2021/10/25 09:26:04;;;;;;;3.90;2.60;;;11.60;99.90;;;;;;4996278;28;21046;-61
2021/10/25 09:28:38;;;;;;;2.80;2.50;;;11.70;99.90;;;;;;4996901;28;20457;-61
2021/10/25 09:31:17;;;;;;;3.10;2.43;;;11.90;99.90;;;;;;5015267;28;20421;-61
2021/10/25 09:34:00;;;;;;;3.93;2.70;;;12.00;99.90;;;;;;5013955;28;20864;-61
2021/10/25 09:36:57;;;;;;;4.50;3.00;;;12.20;99.90;;;;;;4993015;28;20436;-61
2021/10/25 09:51:15;;;;;;;5.83;2.97;;;12.40;99.90;;;;;;5003430;28;20534;-61
2021/10/25 09:54:05;;;;;;;3.90;3.00;;;12.60;99.90;;;;;;5001664;28;21049;-61
2021/10/25 09:56:34;;;;;;;4.23;3.40;;;12.80;99.90;;;;;;5016716;28;20861;-61
2021/10/25 09:59:51;;;;;;;4.00;3.23;;;12.90;99.90;;;;;;5014524;28;20453;-61
2021/10/25 10:02:28;;;;;;;5.50;2.63;;;13.00;99.90;;;;;;4987268;28;20809;-61
2021/10/25 10:04:58;;;;;;;3.00;2.80;;;12.90;99.90;;;;;;5012732;28;20478;-61
2021/10/25 10:07:34;;;;;;;3.50;2.90;;;13.10;99.90;;;;;;4975089;28;20465;-61
2021/10/25 10:10:14;;;;;;;4.40;2.60;;;13.10;99.90;;;;;;4991053;28;20520;-61
2021/10/25 10:12:45;;;;;;;2.07;1.97;;;13.20;99.90;;;;;;4991400;28;20532;-61
2021/10/25 10:15:13;;;;;;;5.20;1.90;;;13.40;99.90;;;;;;5005619;28;20463;-62
2021/10/25 10:17:59;;;;;;;2.87;2.50;;;13.30;99.90;;;;;;5014138;28;20455;-61
2021/10/25 10:20:42;;;;;;;3.00;2.60;;;13.50;99.90;;;;;;4995670;28;20825;-61
2021/10/25 10:23:17;;;;;;;4.03;2.53;;;13.50;99.90;;;;;;4992212;28;20422;-61
2021/10/25 10:25:51;;;;;;;7.60;2.90;;;13.80;99.90;;;;;;4975326;28;20432;-62
2021/10/25 10:28:36;;;;;;;3.83;2.20;;;14.00;99.90;;;;;;4978118;28;20459;-61
2021/10/25 10:31:12;;;;;;;3.27;2.70;;;14.10;99.90;;;;;;4994571;28;20436;-61
2021/10/25 10:33:54;;;;;;;3.27;2.53;;;14.10;99.90;;;;;;4994151;28;20460;-61
2021/10/25 10:36:27;;;;;;;5.57;2.60;;;14.00;99.90;;;;;;4994173;28;20834;-61
2021/10/25 10:39:10;;;;;;;3.13;2.73;;;14.00;99.90;;;;;;4994183;28;20480;-61
2021/10/25 10:42:01;;;;;;;3.60;3.17;;;13.80;99.90;;;;;;5011614;28;20770;-61
2021/10/25 10:44:58;;;;;;;3.47;2.50;;;14.00;99.90;;;;;;4991915;28;20452;-61
2021/10/25 10:47:37;;;;;;;6.30;3.20;;;;;;;;;;4959308;28;20477;-61
2021/10/25 10:50:06;;;;;;;5.20;2.30;;;14.20;99.90;;;;;;4991683;28;20471;-61
2021/10/25 10:52:36;;;;;;;4.10;1.90;;;14.30;99.90;;;;;;4974764;28;20438;-61
2021/10/25 10:55:18;;;;;;;5.03;2.40;;;14.30;99.90;;;;;;4991635;28;20504;-61
2021/10/25 11:00:37;;;;;;;3.93;2.50;;;14.40;99.90;;;;;;4995755;28;20446;-61
2021/10/25 11:03:07;;;;;;;4.90;2.53;;;14.50;99.90;;;;;;4995735;28;20476;-61
2021/10/25 11:05:41;;;;;;;3.40;2.70;;;14.60;99.90;;;;;;4996124;28;20461;-61
2021/10/25 11:08:17;;;;;;;3.00;2.70;;;14.70;99.90;;;;;;4995228;28;20461;-62
2021/10/25 11:10:56;;;;;;;6.03;2.50;;;14.80;99.90;;;;;;4992603;28;20425;-61
2021/10/25 11:13:25;;;;;;;3.63;2.43;;;14.80;99.90;;;;;;5006891;28;20496;-61
2021/10/25 11:16:02;;;;;;;3.00;2.40;;;15.00;99.90;;;;;;4996123;28;20505;-61
2021/10/25 11:18:33;;;;;;;8.10;2.80;;;15.00;99.90;;;;;;4995059;28;20457;-61
2021/10/25 11:21:32;;;;;;;4.83;2.90;;;15.10;99.90;;;;;;4996190;28;20438;-61
2021/10/25 11:24:05;;;;;;;4.93;3.00;;;15.20;99.90;;;;;;4995250;28;20471;-61
2021/10/25 11:26:47;;;;;;;3.17;2.40;;;15.30;99.90;;;;;;4994127;28;20478;-61
2021/10/25 11:29:28;;;;;;;3.23;2.47;;;15.40;99.90;;;;;;4994998;28;20577;-61
2021/10/25 11:32:10;;;;;;;4.07;2.00;;;15.50;99.90;;;;;;5013862;28;20428;-61
2021/10/25 11:34:46;;;;;;;4.60;2.73;;;15.50;99.90;;;;;;5006044;28;20528;-61
2021/10/25 11:37:22;;;;;;;3.90;2.73;;;15.40;99.90;;;;;;5014521;28;20443;-61
2021/10/25 11:40:03;;;;;;;3.57;2.20;;;15.30;99.90;;;;;;5034510;28;20460;-61
2021/10/25 11:42:42;;;;;;;5.20;2.70;;;15.10;99.90;;;;;;5031217;28;20878;-61
2021/10/25 11:45:12;;;;;;;9.93;2.30;;;15.10;99.90;;;;;;5009451;28;20468;-60
2021/10/25 11:47:42;;;;;;;8.57;2.37;;;15.10;99.90;;;;;;5016939;28;21052;-61
2021/10/25 11:50:17;;;;;;;3.60;2.27;;;15.10;99.90;;;;;;5001813;28;20478;-61
2021/10/25 11:52:59;;;;;;;3.40;2.17;;;15.10;99.90;;;;;;4995497;28;20420;-61
2021/10/25 11:55:30;;;;;;;2.97;2.30;;;15.10;99.20;;;;;;5005995;28;21025;-61
2021/10/25 11:57:58;;;;;;;3.90;2.97;;;15.10;98.40;;;;;;5025400;28;20776;-61
2021/10/25 12:00:29;;;;;;;6.63;2.87;;;15.20;99.10;;;;;;5000151;28;20473;-61
2021/10/25 12:03:22;;;;;;;3.80;2.47;;;15.20;99.10;;;;;;5005105;28;20499;-61
2021/10/25 12:05:51;;;;;;;2.93;2.23;;;15.10;98.00;;;;;;4996989;28;20464;-61
2021/10/25 12:08:19;;;;;;;3.50;2.30;;;15.00;98.20;;;;;;5011336;28;20460;-61
2021/10/25 12:10:49;;;;;;;4.10;2.03;;;15.00;97.80;;;;;;5033429;28;20428;-61
2021/10/25 12:13:16;;;;;;;3.57;2.73;;;14.90;97.90;;;;;;5007763;28;20541;-61
2021/10/25 12:15:59;;;;;;;2.40;1.97;;;14.80;98.20;;;;;;4997599;28;20845;-61
2021/10/25 12:18:27;;;;;;;5.97;2.27;;;14.80;97.10;;;;;;4994646;28;20549;-61
2021/10/25 12:20:55;;;;;;;2.67;2.00;;;14.70;96.90;;;;;;5009886;28;20455;-61
2021/10/25 12:23:27;;;;;;;2.70;2.10;;;14.80;97.50;;;;;;5019961;28;20826;-62
2021/10/25 12:26:01;;;;;;;6.97;2.10;;;14.80;97.10;;;;;;5016350;28;20440;-61
2021/10/25 12:28:28;;;;;;;5.20;3.07;;;14.80;97.00;;;;;;5033669;28;20487;-61
2021/10/25 12:31:07;;;;;;;4.60;3.20;;;14.80;97.60;;;;;;4999322;28;20453;-61
2021/10/25 12:33:37;;;;;;;5.60;2.50;;;14.80;96.50;;;;;;4994143;28;20532;-61
2021/10/25 12:36:15;;;;;;;2.70;2.40;;;14.70;96.60;;;;;;5021951;28;20869;-61
2021/10/25 12:38:46;;;;;;;3.70;2.60;;;14.70;97.10;;;;;;5032327;28;20499;-61
2021/10/25 12:41:13;;;;;;;4.10;2.33;;;14.60;96.90;;;;;;5022220;28;20469;-61
2021/10/25 12:43:43;;;;;;;6.43;1.97;;;14.60;96.10;;;;;;5004347;28;20497;-61
2021/10/25 12:46:14;;;;;;;2.97;2.13;;;14.60;95.90;;;;;;5012765;28;20439;-62
2021/10/25 12:48:45;;;;;;;4.20;2.53;;;14.50;96.10;;;;;;5033062;28;20562;-61
2021/10/25 12:51:12;;;;;;;2.70;1.97;;;14.50;96.50;;;;;;5003962;28;20444;-61
2021/10/25 12:53:45;;;;;;;5.33;2.73;;;14.50;96.70;;;;;;5024703;28;20461;-61
2021/10/25 12:56:13;;;;;;;4.50;2.80;;;14.50;96.70;;;;;;5013420;28;20425;-61
2021/10/25 12:58:40;;;;;;;3.90;2.37;;;14.50;96.90;;;;;;5008542;28;20544;-61
2021/10/25 13:01:12;;;;;;;2.50;1.70;;;14.50;96.80;;;;;;5013397;28;20417;-61
2021/10/25 13:03:47;;;;;;;2.97;2.57;;;14.50;96.60;;;;;;5018385;28;20468;-61
2021/10/25 13:06:15;;;;;;;2.97;2.67;;;14.50;96.60;;;;;;4992495;28;20981;-61
2021/10/25 13:08:42;;;;;;;4.27;2.70;;;14.50;96.70;;;;;;4993024;28;20478;-61
2021/10/25 13:11:09;;;;;;;4.87;3.23;;;14.60;95.90;;;;;;5028005;28;20429;-61
2021/10/25 13:13:37;;;;;;;2.37;2.00;;;14.60;96.10;;;;;;5000650;28;20481;-57
2021/10/25 13:16:15;;;;;;;3.90;2.47;;;14.60;96.30;;;;;;5025425;28;20935;-57
2021/10/25 13:18:42;;;;;;;2.47;2.27;;;14.60;95.70;;;;;;5021413;28;20472;-57
2021/10/25 13:21:09;;;;;;;2.97;2.33;;;14.70;96.10;;;;;;4994433;28;20532;-57
2021/10/25 13:23:38;;;;;;;3.07;1.90;;;14.60;96.90;;;;;;4959154;28;20469;-57
2021/10/25 13:26:06;;;;;;;3.50;2.17;;;14.60;96.20;;;;;;4995366;28;20434;-57
2021/10/25 13:28:33;;;;;;;5.13;2.50;;;14.70;96.70;;;;;;5011966;28;20461;-57
2021/10/25 13:31:00;;;;;;;4.27;2.33;;;14.70;97.20;;;;;;5012907;28;20783;-57
2021/10/25 13:33:33;;;;;;;2.30;1.77;;;14.90;98.80;;;;;;5006676;28;20542;-57
2021/10/25 13:36:02;;;;;;;2.60;2.00;;;14.90;97.50;;;;;;4997857;28;20453;-58
2021/10/25 13:38:29;;;;;;;3.83;2.10;;;15.00;98.50;;;;;;4992846;28;20457;-57
2021/10/25 13:40:56;;;;;;;5.07;2.50;;;15.00;97.90;;;;;;4993406;28;20522;-57
2021/10/25 13:43:33;;;;;;;4.30;2.13;;;15.00;97.90;;;;;;4992885;28;20466;-57
2021/10/25 13:46:00;;;;;;;4.70;3.10;;;15.30;99.60;;;;;;5021384;28;20479;-57
2021/10/25 13:48:27;;;;;;;4.53;3.03;;;15.00;97.40;;;;;;5023225;28;20470;-57
2021/10/25 13:50:55;;;;;;;4.43;3.17;;;15.00;97.40;;;;;;5026524;28;20444;-57
2021/10/25 13:53:23;;;;;;;6.87;3.37;;;15.00;97.10;;;;;;5032009;28;20478;-57
2021/10/25 13:55:50;;;;;;;5.07;2.83;;;15.00;96.90;;;;;;5029287;28;20424;-57
2021/10/25 13:58:17;;;;;;;3.50;2.77;;;15.00;98.00;;;;;;5026924;28;20491;-57
2021/10/25 14:00:44;;;;;;;4.00;2.43;;;15.00;98.30;;;;;;5017759;28;20508;-57
2021/10/25 14:03:11;;;;;;;3.20;2.40;;;14.90;97.80;;;;;;5014535;28;20788;-57
2021/10/25 14:05:38;;;;;;;4.47;2.90;;;14.90;97.70;;;;;;4998874;28;20444;-57
2021/10/25 14:08:05;;;;;;;3.63;2.70;;;14.80;98.40;;;;;;4993247;28;20710;-57
2021/10/25 14:10:44;;;;;;;2.80;2.20;;;14.80;97.70;;;;;;4976734;28;20480;-57
2021/10/25 14:13:19;;;;;;;2.57;2.33;;;14.70;97.70;;;;;;4992145;28;20784;-57
2021/10/25 14:15:47;;;;;;;2.93;2.57;;;14.70;98.50;;;;;;4992980;28;20422;-57
2021/10/25 14:18:14;;;;;;;4.63;2.90;;;14.70;98.00;;;;;;4975428;28;20433;-57
2021/10/25 14:20:42;;;;;;;3.97;2.70;;;14.70;98.20;;;;;;4993182;28;20788;-57
2021/10/25 14:23:11;;;;;;;4.53;2.50;;;14.60;98.30;;;;;;4974931;28;20950;-57
2021/10/25 14:25:37;;;;;;;4.50;2.97;;;14.60;99.90;;;;;;4992702;28;20437;-58
2021/10/25 14:28:05;;;;;;;5.47;2.50;;;14.60;99.90;;;;;;4992436;28;20481;-57
2021/10/25 14:30:32;;;;;;;4.90;3.00;;;14.50;99.90;;;;;;4975529;28;20433;-57
2021/10/25 14:33:00;;;;;;;12.63;2.97;;;14.50;99.90;;;;;;4991835;28;20418;-58
2021/10/25 14:35:27;;;;;;;2.93;2.43;;;14.50;99.90;;;;;;4992317;28;20469;-57
2021/10/25 14:37:57;;;;;;;3.73;3.40;;;14.50;99.90;;;;;;4992005;28;20488;-57
2021/10/25 14:40:58;;;;;;;8.07;3.23;;;14.40;99.90;;;;;;4992005;28;20509;-57
2021/10/25 14:43:17;;;;;;;5.53;3.40;;;14.40;99.90;;;;;;4991821;28;20449;-57
2021/10/25 14:45:52;;;;;;;4.33;3.13;;;14.40;99.90;;;;;;4992645;28;20434;-57
2021/10/25 14:53:53;;;;;;;4.30;3.17;;;14.30;99.90;;;;;;4991808;28;20553;-57
2021/10/25 14:56:22;;;;;;;5.97;3.37;;;14.20;99.90;;;;;;4997712;28;20795;-57
2021/10/25 14:58:49;;;;;;;4.67;4.23;;;14.20;99.90;;;;;;5022110;28;20981;-57
2021/10/25 15:01:21;;;;;;;3.80;3.20;;;14.10;99.90;;;;;;5031254;28;20421;-57
2021/10/25 15:03:48;;;;;;;6.30;3.83;;;14.10;99.90;;;;;;5027773;28;20669;-57
2021/10/25 15:06:16;;;;;;;7.27;4.17;;;14.00;99.90;;;;;;4992204;28;20454;-57